Time;durP1;ratioP1;P1;durP2;ratioP2;P2;SDS_P1;SDS_P2;PMS_P1;PMS_P2;Temp;Humidity;BMP_temperature;BMP_pressure;BME280_temperature;BME280_humidity;BME280_pressure;Samples;Min_cycle;Max_cycle;Signal;HPM_P1;HPM_P2
2022/09/08 00:00:16;;;;;;;17.73;10.65;;;17.30;99.90;;;;;;5021817;28;20037;-72
2022/09/08 00:02:43;;;;;;;16.45;9.93;;;17.30;99.90;;;;;;5022776;28;20034;-71
2022/09/08 00:05:12;;;;;;;19.27;10.10;;;17.20;99.90;;;;;;5021543;28;20418;-73
2022/09/08 00:07:38;;;;;;;33.60;11.70;;;17.20;99.90;;;;;;5022016;28;20117;-72
2022/09/08 00:10:04;;;;;;;14.95;9.30;;;17.20;99.90;;;;;;5022152;28;20072;-72
2022/09/08 00:12:30;;;;;;;20.50;10.95;;;17.20;99.90;;;;;;5021899;28;20042;-71
2022/09/08 00:14:58;;;;;;;20.40;12.15;;;17.10;99.90;;;;;;5022142;28;20021;-71
2022/09/08 00:17:24;;;;;;;17.77;11.20;;;17.20;99.90;;;;;;5021606;28;20097;-71
2022/09/08 00:19:49;;;;;;;20.73;12.38;;;17.20;99.90;;;;;;5021643;28;20057;-70
2022/09/08 00:22:15;;;;;;;20.27;11.93;;;17.10;99.90;;;;;;5021921;28;21016;-72
2022/09/08 00:24:41;;;;;;;20.65;12.13;;;17.10;99.90;;;;;;5022027;28;20390;-74
2022/09/08 00:27:06;;;;;;;19.05;11.10;;;17.10;99.90;;;;;;5019954;28;20046;-71
2022/09/08 00:29:33;;;;;;;26.58;13.32;;;17.10;99.90;;;;;;5021736;28;20026;-71
2022/09/08 00:32:03;;;;;;;30.55;13.20;;;17.10;99.90;;;;;;5021544;28;20037;-72
2022/09/08 00:34:29;;;;;;;31.90;13.70;;;17.10;99.90;;;;;;5021361;28;20026;-70
2022/09/08 00:36:56;;;;;;;23.33;13.48;;;17.00;99.90;;;;;;5021408;28;20081;-70
2022/09/08 00:39:22;;;;;;;24.42;13.50;;;16.90;99.90;;;;;;5020548;28;20017;-70
2022/09/08 00:41:50;;;;;;;24.67;12.63;;;17.00;99.90;;;;;;5021360;28;20025;-72
2022/09/08 00:44:37;;;;;;;24.27;12.95;;;16.90;99.90;;;;;;5022093;28;20093;-70
2022/09/08 00:47:03;;;;;;;23.10;13.38;;;16.90;99.90;;;;;;5021749;28;20073;-71
2022/09/08 00:49:30;;;;;;;20.27;11.05;;;16.90;99.90;;;;;;5020659;28;20018;-71
2022/09/08 00:51:57;;;;;;;25.02;12.82;;;16.90;99.90;;;;;;5021148;28;20050;-71
2022/09/08 00:54:24;;;;;;;23.55;13.23;;;16.80;99.90;;;;;;5020937;28;20053;-71
2022/09/08 00:56:51;;;;;;;22.35;12.00;;;16.90;99.90;;;;;;5021646;28;20045;-71
2022/09/08 00:59:19;;;;;;;27.10;12.88;;;16.90;99.90;;;;;;5021411;28;20030;-72
2022/09/08 01:01:45;;;;;;;20.23;12.23;;;16.90;99.90;;;;;;5021132;28;20049;-71
2022/09/08 01:04:11;;;;;;;25.23;11.95;;;16.90;99.90;;;;;;5021802;28;20103;-72
2022/09/08 01:12:59;;;;;;;22.00;12.02;;;16.80;99.90;;;;;;5021703;28;20045;-71
2022/09/08 01:15:27;;;;;;;19.55;10.50;;;16.70;99.90;;;;;;5021201;28;20086;-71
2022/09/08 01:17:55;;;;;;;22.27;12.13;;;16.70;99.90;;;;;;5020856;28;20033;-71
2022/09/08 01:20:31;;;;;;;27.33;11.82;;;16.70;99.90;;;;;;5021414;28;20022;-71
2022/09/08 01:23:25;;;;;;;20.92;11.50;;;16.60;99.90;;;;;;5018967;28;20049;-71
2022/09/08 01:26:17;;;;;;;18.95;11.50;;;16.70;99.90;;;;;;5020926;28;20037;-73
2022/09/08 01:28:49;;;;;;;19.92;12.75;;;16.60;99.90;;;;;;5019129;28;20045;-72
2022/09/08 01:31:17;;;;;;;20.00;11.40;;;16.60;99.90;;;;;;5020952;28;20030;-71
2022/09/08 01:33:45;;;;;;;22.40;11.98;;;16.60;99.90;;;;;;5003809;28;20489;-73
2022/09/08 01:36:19;;;;;;;16.70;10.68;;;16.60;99.90;;;;;;5021243;28;20033;-71
2022/09/08 01:38:45;;;;;;;20.75;12.00;;;16.60;99.90;;;;;;5021331;28;20046;-70
2022/09/08 01:41:13;;;;;;;20.20;11.32;;;16.60;99.90;;;;;;5021415;28;20026;-72
2022/09/08 01:43:40;;;;;;;20.25;11.13;;;16.60;99.90;;;;;;5020804;28;20034;-73
2022/09/08 01:46:07;;;;;;;19.50;11.43;;;16.50;99.90;;;;;;5020961;28;20030;-72
2022/09/08 01:48:33;;;;;;;19.13;10.80;;;16.50;99.90;;;;;;5020439;28;20038;-71
2022/09/08 01:51:04;;;;;;;19.67;10.10;;;16.50;99.90;;;;;;5020426;28;20033;-70
2022/09/08 01:53:30;;;;;;;21.48;11.65;;;16.50;99.90;;;;;;5021157;28;20034;-70
2022/09/08 01:55:55;;;;;;;20.45;12.13;;;16.40;99.90;;;;;;5021018;28;20497;-70
2022/09/08 01:58:21;;;;;;;32.70;11.95;;;16.50;99.90;;;;;;5020188;28;20077;-71
2022/09/08 02:00:47;;;;;;;22.85;11.27;;;16.50;99.90;;;;;;5021407;28;20984;-71
2022/09/08 02:03:12;;;;;;;23.50;11.85;;;16.40;99.90;;;;;;5021080;28;20030;-71
2022/09/08 02:05:39;;;;;;;22.02;11.40;;;16.40;99.90;;;;;;5022772;28;20033;-72
2022/09/08 02:08:06;;;;;;;18.17;10.95;;;16.40;99.90;;;;;;5024949;28;20029;-70
2022/09/08 02:10:32;;;;;;;20.80;11.48;;;16.40;99.90;;;;;;5024018;28;20548;-72
2022/09/08 02:12:58;;;;;;;27.60;11.18;;;16.30;99.90;;;;;;5023865;28;20088;-72
2022/09/08 02:15:24;;;;;;;17.77;10.55;;;16.40;99.90;;;;;;5024406;28;20033;-71
2022/09/08 02:17:50;;;;;;;16.52;10.80;;;16.20;99.90;;;;;;5024165;28;20022;-71
2022/09/08 02:20:17;;;;;;;23.58;11.13;;;16.40;99.90;;;;;;5024223;28;20045;-71
2022/09/08 02:22:43;;;;;;;18.63;10.50;;;16.40;99.90;;;;;;5023835;28;20462;-72
2022/09/08 02:25:09;;;;;;;15.68;9.77;;;16.40;99.90;;;;;;5023856;28;20026;-71
2022/09/08 02:27:34;;;;;;;18.63;10.05;;;16.30;99.90;;;;;;5022985;28;20057;-71
2022/09/08 02:30:00;;;;;;;19.88;11.23;;;16.30;99.90;;;;;;5024065;28;20030;-72
2022/09/08 02:32:26;;;;;;;19.80;10.75;;;16.30;99.90;;;;;;5023837;28;20152;-70
2022/09/08 02:34:52;;;;;;;14.88;9.70;;;16.30;99.90;;;;;;5023693;28;20105;-70
2022/09/08 02:37:18;;;;;;;14.40;9.43;;;16.30;99.90;;;;;;5006755;28;20593;-70
2022/09/08 02:39:45;;;;;;;19.38;10.93;;;16.30;99.90;;;;;;5023188;28;20029;-71
2022/09/08 02:42:11;;;;;;;17.90;10.57;;;16.30;99.90;;;;;;5023791;28;20026;-72
2022/09/08 02:44:41;;;;;;;17.95;10.82;;;16.20;99.90;;;;;;5024125;28;20022;-72
2022/09/08 02:47:08;;;;;;;17.88;9.80;;;16.40;99.90;;;;;;5023884;28;20057;-72
2022/09/08 02:49:34;;;;;;;17.80;10.65;;;16.30;99.90;;;;;;5023580;28;20038;-72
2022/09/08 02:52:00;;;;;;;18.40;9.90;;;16.20;99.90;;;;;;5023156;28;20060;-71
2022/09/08 02:54:26;;;;;;;18.38;11.07;;;16.20;99.90;;;;;;5022842;28;20591;-71
2022/09/08 02:56:51;;;;;;;19.23;10.52;;;16.20;99.90;;;;;;5023237;28;20033;-71
2022/09/08 02:59:17;;;;;;;17.75;10.88;;;16.20;99.90;;;;;;5023824;28;20040;-70
2022/09/08 03:01:43;;;;;;;17.40;10.18;;;16.20;99.90;;;;;;5023420;28;20068;-71
2022/09/08 03:04:10;;;;;;;17.40;10.32;;;16.20;99.90;;;;;;5023026;28;20022;-71
2022/09/08 03:06:37;;;;;;;21.10;12.90;;;16.20;99.90;;;;;;5022975;28;20132;-71
2022/09/08 03:09:04;;;;;;;22.83;10.88;;;16.20;99.90;;;;;;5022684;28;20378;-70
2022/09/08 03:11:31;;;;;;;17.77;9.68;;;16.20;99.90;;;;;;5022649;28;20036;-71
2022/09/08 03:13:58;;;;;;;20.58;11.07;;;16.10;99.90;;;;;;5023348;28;20033;-71
2022/09/08 03:16:24;;;;;;;19.67;11.30;;;16.10;99.90;;;;;;5022238;28;20026;-71
2022/09/08 03:18:49;;;;;;;24.52;11.35;;;16.10;99.90;;;;;;5023169;28;20030;-72
2022/09/08 03:21:15;;;;;;;19.63;11.05;;;16.10;99.90;;;;;;5022962;28;20021;-71
2022/09/08 03:23:41;;;;;;;17.30;10.32;;;16.10;99.90;;;;;;5023127;28;20033;-70
2022/09/08 03:26:12;;;;;;;24.35;11.55;;;16.00;99.90;;;;;;5022280;28;20050;-73
2022/09/08 03:28:39;;;;;;;22.25;11.00;;;16.00;99.90;;;;;;5023072;28;20025;-72
2022/09/08 03:31:10;;;;;;;21.75;12.57;;;16.00;99.90;;;;;;5022200;28;20122;-72
2022/09/08 03:33:36;;;;;;;22.58;12.07;;;16.00;99.90;;;;;;5023018;28;20117;-71
2022/09/08 03:36:09;;;;;;;21.23;12.35;;;16.00;99.90;;;;;;5022460;28;20025;-70
2022/09/08 03:38:35;;;;;;;21.75;11.70;;;16.00;99.90;;;;;;5022565;28;20032;-70
2022/09/08 03:41:11;;;;;;;20.00;11.48;;;16.00;99.90;;;;;;5022985;28;20044;-71
2022/09/08 03:43:37;;;;;;;23.40;13.68;;;16.00;99.90;;;;;;5022087;28;20029;-73
2022/09/08 03:46:07;;;;;;;20.17;11.18;;;16.00;99.90;;;;;;5022807;28;20022;-71
2022/09/08 03:48:34;;;;;;;19.48;11.98;;;16.00;99.90;;;;;;5022768;28;20041;-71
2022/09/08 03:51:11;;;;;;;18.20;11.98;;;15.90;99.90;;;;;;5022246;28;20044;-71
2022/09/08 03:53:37;;;;;;;21.70;12.52;;;15.90;99.90;;;;;;5022663;28;20048;-71
2022/09/08 03:56:06;;;;;;;19.85;12.20;;;15.90;99.90;;;;;;5022753;28;20132;-71
2022/09/08 03:58:32;;;;;;;21.40;11.50;;;15.90;99.90;;;;;;5004513;28;20066;-72
2022/09/08 04:01:00;;;;;;;19.20;10.43;;;15.90;99.90;;;;;;5022787;28;20022;-73
2022/09/08 04:03:26;;;;;;;20.85;11.45;;;15.80;99.90;;;;;;5021201;28;20032;-72
2022/09/08 04:05:51;;;;;;;18.45;11.50;;;15.80;99.90;;;;;;5021676;28;20081;-71
2022/09/08 04:08:17;;;;;;;21.92;12.18;;;15.80;99.90;;;;;;5022162;28;20041;-70
2022/09/08 04:10:42;;;;;;;16.73;11.43;;;15.80;99.90;;;;;;5022484;28;20038;-71
2022/09/08 04:13:08;;;;;;;20.75;12.85;;;15.80;99.90;;;;;;5021845;28;20401;-73
2022/09/08 04:15:34;;;;;;;22.52;12.75;;;15.80;99.90;;;;;;5022595;28;20049;-70
2022/09/08 04:17:59;;;;;;;27.38;12.40;;;15.80;99.90;;;;;;5003481;28;20022;-70
2022/09/08 04:20:25;;;;;;;22.27;12.27;;;15.80;99.90;;;;;;5021235;28;20038;-70
2022/09/08 04:22:51;;;;;;;18.42;10.57;;;15.80;99.90;;;;;;5021981;28;20069;-71
2022/09/08 04:25:17;;;;;;;20.77;11.68;;;15.80;99.90;;;;;;5021487;28;20014;-71
2022/09/08 04:27:43;;;;;;;19.45;11.75;;;15.80;99.90;;;;;;5020594;28;20109;-70
2022/09/08 04:30:10;;;;;;;21.73;12.50;;;15.80;99.90;;;;;;5021857;28;20067;-72
2022/09/08 04:32:38;;;;;;;22.58;12.13;;;15.80;99.90;;;;;;5021863;28;20112;-72
2022/09/08 04:35:04;;;;;;;26.48;13.77;;;15.80;99.90;;;;;;5020880;28;20034;-70
2022/09/08 04:37:30;;;;;;;26.10;13.65;;;15.80;99.90;;;;;;5021895;28;20662;-71
2022/09/08 04:39:55;;;;;;;22.80;12.45;;;15.80;99.90;;;;;;5021692;28;20081;-71
2022/09/08 04:42:23;;;;;;;20.27;12.20;;;15.80;99.90;;;;;;5021536;28;20053;-71
2022/09/08 04:44:49;;;;;;;19.02;11.85;;;15.80;99.90;;;;;;5022092;28;20026;-71
2022/09/08 04:47:15;;;;;;;20.63;12.57;;;15.80;99.90;;;;;;5020271;28;20513;-72
2022/09/08 04:49:41;;;;;;;21.77;12.35;;;15.80;99.90;;;;;;5020869;28;20048;-70
2022/09/08 04:52:08;;;;;;;22.20;11.95;;;15.80;99.90;;;;;;5022364;28;20072;-72
2022/09/08 04:54:33;;;;;;;22.45;12.88;;;15.80;99.90;;;;;;5021187;28;20037;-71
2022/09/08 04:56:59;;;;;;;20.88;11.88;;;15.80;99.90;;;;;;5021800;28;20052;-72
2022/09/08 04:59:25;;;;;;;23.33;12.73;;;15.70;99.90;;;;;;5021778;28;20026;-71
2022/09/08 05:01:51;;;;;;;20.17;12.27;;;15.80;99.90;;;;;;5020696;28;20044;-70
2022/09/08 05:04:17;;;;;;;21.42;12.32;;;15.70;99.90;;;;;;5020661;28;20085;-71
2022/09/08 05:06:43;;;;;;;26.15;14.10;;;15.70;99.90;;;;;;5020899;28;20034;-72
2022/09/08 05:09:11;;;;;;;26.20;13.07;;;15.80;99.90;;;;;;5020949;28;20114;-71
2022/09/08 05:11:37;;;;;;;28.77;12.82;;;15.80;99.90;;;;;;5018013;28;20653;-72
2022/09/08 05:14:08;;;;;;;24.35;13.27;;;15.80;99.90;;;;;;5021314;28;20118;-72
2022/09/08 05:16:33;;;;;;;22.88;12.35;;;15.80;99.90;;;;;;5020966;28;20034;-71
2022/09/08 05:19:01;;;;;;;21.08;12.05;;;15.80;99.90;;;;;;5019314;28;20018;-72
2022/09/08 05:21:29;;;;;;;21.85;12.75;;;15.80;99.90;;;;;;5019032;28;20042;-74
2022/09/08 05:23:56;;;;;;;24.48;13.30;;;15.80;99.90;;;;;;5019965;28;20018;-71
2022/09/08 05:26:23;;;;;;;24.73;12.93;;;15.80;99.90;;;;;;5018827;28;20050;-71
2022/09/08 05:28:49;;;;;;;25.60;13.88;;;15.80;99.90;;;;;;5020597;28;20084;-72
2022/09/08 05:31:19;;;;;;;23.60;12.82;;;15.80;99.90;;;;;;5020714;28;20048;-73
2022/09/08 05:33:46;;;;;;;25.98;14.02;;;15.80;99.90;;;;;;5021285;28;20109;-71
2022/09/08 05:36:18;;;;;;;24.55;14.18;;;15.80;99.90;;;;;;5021567;28;20386;-72
2022/09/08 05:38:44;;;;;;;22.45;12.65;;;15.80;99.90;;;;;;5021872;28;20025;-72
2022/09/08 05:41:11;;;;;;;24.48;12.52;;;15.80;99.90;;;;;;5024174;28;20029;-72
2022/09/08 05:43:38;;;;;;;27.25;13.93;;;15.80;99.90;;;;;;5024766;28;20086;-73
2022/09/08 05:46:04;;;;;;;21.58;12.68;;;15.80;99.90;;;;;;5023421;28;20037;-73
2022/09/08 05:48:30;;;;;;;22.35;12.70;;;15.80;99.90;;;;;;5021915;28;20029;-71
2022/09/08 05:50:56;;;;;;;24.83;12.73;;;15.80;99.90;;;;;;5022529;28;20022;-71
2022/09/08 05:53:22;;;;;;;27.95;14.45;;;15.80;99.90;;;;;;5020682;28;20109;-73
2022/09/08 05:55:56;;;;;;;21.33;12.18;;;15.80;99.90;;;;;;5022765;28;20581;-71
2022/09/08 05:58:21;;;;;;;25.20;12.82;;;15.80;99.90;;;;;;5022883;28;20025;-73
2022/09/08 06:00:53;;;;;;;25.83;13.35;;;15.80;99.90;;;;;;5024478;28;20061;-71
2022/09/08 06:03:19;;;;;;;36.13;13.40;;;15.80;99.90;;;;;;5024352;28;20030;-71
2022/09/08 06:05:45;;;;;;;17.88;11.50;;;15.80;99.90;;;;;;5024071;28;20034;-72
2022/09/08 06:08:11;;;;;;;28.45;13.20;;;15.90;99.90;;;;;;5023559;28;20026;-71
2022/09/08 06:10:37;;;;;;;22.58;12.88;;;15.90;99.90;;;;;;5023716;28;20117;-72
2022/09/08 06:13:03;;;;;;;24.05;12.43;;;15.80;99.90;;;;;;5022536;28;20069;-72
2022/09/08 06:15:29;;;;;;;21.05;11.88;;;15.90;99.90;;;;;;5024282;28;20029;-72
2022/09/08 06:17:56;;;;;;;27.23;12.02;;;15.90;99.90;;;;;;5023682;28;20033;-71
2022/09/08 06:20:23;;;;;;;25.92;12.95;;;16.00;99.90;;;;;;5023803;28;20018;-72
2022/09/08 06:22:51;;;;;;;22.63;13.23;;;16.00;99.90;;;;;;5024212;28;20057;-72
2022/09/08 06:25:17;;;;;;;24.45;12.60;;;16.00;99.90;;;;;;5022288;28;20022;-72
2022/09/08 06:27:58;;;;;;;25.67;13.18;;;16.00;99.90;;;;;;5005408;28;20551;-72
2022/09/08 06:30:25;;;;;;;24.55;13.98;;;16.10;99.90;;;;;;5023684;28;20053;-72
2022/09/08 06:33:10;;;;;;;22.70;12.43;;;16.10;99.90;;;;;;5022133;28;20036;-73
2022/09/08 06:36:02;;;;;;;20.30;11.77;;;16.10;99.90;;;;;;5022344;28;20026;-73
2022/09/08 06:38:36;;;;;;;22.65;12.77;;;16.10;99.90;;;;;;5023115;28;20045;-72
2022/09/08 06:41:12;;;;;;;21.65;11.30;;;16.10;99.90;;;;;;5022173;28;20030;-71
2022/09/08 06:43:44;;;;;;;19.45;11.85;;;16.20;99.90;;;;;;5022792;28;20419;-72
2022/09/08 06:46:17;;;;;;;20.95;12.23;;;16.20;99.90;;;;;;5023255;28;20076;-72
2022/09/08 06:48:43;;;;;;;21.13;12.15;;;16.20;99.90;;;;;;5021481;28;20074;-72
2022/09/08 06:51:27;;;;;;;19.42;12.32;;;16.20;99.90;;;;;;5020930;28;20038;-72
2022/09/08 06:54:15;;;;;;;19.73;10.70;;;16.20;99.90;;;;;;5020186;28;20030;-71
2022/09/08 06:57:30;;;;;;;18.00;10.57;;;16.20;99.90;;;;;;5022919;28;20045;-72
2022/09/08 07:00:09;;;;;;;23.15;12.32;;;16.30;99.90;;;;;;4976917;28;20089;-72
2022/09/08 07:02:50;;;;;;;24.40;12.07;;;16.30;99.90;;;;;;5004522;28;20037;-72
2022/09/08 07:05:44;;;;;;;24.98;12.90;;;16.20;99.90;;;;;;5022657;28;20025;-72
2022/09/08 07:08:37;;;;;;;23.58;13.23;;;16.30;99.90;;;;;;5022806;28;20037;-72
2022/09/08 07:11:05;;;;;;;20.35;11.20;;;16.30;99.90;;;;;;5022241;28;20097;-71
2022/09/08 07:14:00;;;;;;;19.35;11.32;;;16.30;99.90;;;;;;5021605;28;20041;-72
2022/09/08 07:16:38;;;;;;;27.17;11.82;;;16.40;99.90;;;;;;4975832;28;20050;-71
2022/09/08 07:19:48;;;;;;;25.95;11.23;;;16.40;99.90;;;;;;5023315;28;20034;-72
2022/09/08 07:22:31;;;;;;;17.67;9.93;;;16.40;99.90;;;;;;5008252;28;20037;-72
2022/09/08 07:25:13;;;;;;;19.95;12.20;;;16.50;99.90;;;;;;5022739;28;20022;-71
2022/09/08 07:27:41;;;;;;;18.00;10.55;;;16.50;99.90;;;;;;5020966;28;20053;-71
2022/09/08 07:30:16;;;;;;;21.25;11.15;;;16.50;99.90;;;;;;5021262;28;20036;-72
2022/09/08 07:32:50;;;;;;;16.85;9.77;;;16.50;99.90;;;;;;5021744;28;20137;-72
2022/09/08 07:35:31;;;;;;;20.35;10.43;;;16.50;99.90;;;;;;5021100;28;20026;-71
2022/09/08 07:38:03;;;;;;;19.98;11.00;;;16.50;99.90;;;;;;5020563;28;20036;-70
2022/09/08 07:40:39;;;;;;;15.13;9.77;;;16.60;99.90;;;;;;5021788;28;20186;-71
2022/09/08 07:43:10;;;;;;;19.80;9.82;;;16.60;99.90;;;;;;5020895;28;20030;-71
2022/09/08 07:45:51;;;;;;;19.15;11.07;;;16.50;99.90;;;;;;5022537;28;20025;-72
2022/09/08 07:48:24;;;;;;;17.58;9.98;;;16.60;99.90;;;;;;5021115;28;20093;-72
2022/09/08 07:51:08;;;;;;;20.67;10.75;;;16.50;99.90;;;;;;5019459;28;20117;-69
2022/09/08 07:53:52;;;;;;;20.70;10.77;;;16.60;99.90;;;;;;5019306;28;20049;-70
2022/09/08 07:56:36;;;;;;;17.67;10.20;;;16.60;99.90;;;;;;5020387;28;20037;-71
2022/09/08 07:59:29;;;;;;;18.27;10.30;;;16.60;99.90;;;;;;5020143;28;20112;-71
2022/09/08 08:02:13;;;;;;;21.60;9.20;;;16.60;99.90;;;;;;5021028;28;20490;-71
2022/09/08 08:04:47;;;;;;;13.80;8.27;;;16.60;99.90;;;;;;5021771;28;20038;-73
2022/09/08 08:07:20;;;;;;;27.02;9.80;;;16.60;99.90;;;;;;5022414;28;20069;-71
2022/09/08 08:09:52;;;;;;;16.50;9.65;;;16.60;99.90;;;;;;5021301;28;20083;-71
2022/09/08 08:12:43;;;;;;;19.13;10.25;;;16.70;99.90;;;;;;5004682;28;20109;-71
2022/09/08 08:15:19;;;;;;;17.88;10.43;;;16.70;99.90;;;;;;5016892;28;20050;-71
2022/09/08 08:18:11;;;;;;;14.27;9.23;;;16.70;99.90;;;;;;5017970;28;20038;-72
2022/09/08 08:20:51;;;;;;;15.63;8.48;;;16.70;99.90;;;;;;5015063;28;20045;-72
2022/09/08 08:23:36;;;;;;;24.67;9.73;;;16.80;99.90;;;;;;5020628;28;20492;-71
2022/09/08 08:26:01;;;;;;;;;;;16.80;99.90;;;;;;5020948;28;20613;-71
2022/09/08 08:28:38;;;;;;;16.60;9.25;;;16.80;99.90;;;;;;5021406;28;19933;-71
2022/09/08 08:31:16;;;;;;;18.73;9.43;;;16.80;99.90;;;;;;5019486;28;20029;-71
2022/09/08 08:33:47;;;;;;;17.13;8.40;;;16.90;99.90;;;;;;5020067;28;20046;-72
2022/09/08 08:36:17;;;;;;;14.75;8.35;;;16.90;99.90;;;;;;5021016;28;20028;-74
2022/09/08 08:38:50;;;;;;;14.23;8.52;;;17.00;99.90;;;;;;5021522;28;20018;-71
2022/09/08 08:41:31;;;;;;;14.40;8.70;;;17.00;99.90;;;;;;5020152;28;20042;-72
2022/09/08 08:44:21;;;;;;;14.73;7.70;;;17.00;99.90;;;;;;5020525;28;20049;-72
2022/09/08 08:47:14;;;;;;;12.73;7.57;;;17.00;99.90;;;;;;5020795;28;20085;-73
2022/09/08 08:50:02;;;;;;;11.52;7.05;;;17.00;99.90;;;;;;5015954;28;20421;-73
2022/09/08 08:52:50;;;;;;;21.08;9.60;;;17.10;99.90;;;;;;5021045;28;20038;-72
2022/09/08 08:55:21;;;;;;;14.48;8.10;;;17.10;99.90;;;;;;5020225;28;20073;-72
2022/09/08 08:57:58;;;;;;;19.58;8.15;;;17.10;99.90;;;;;;5018213;28;20034;-73
2022/09/08 09:00:54;;;;;;;15.10;8.00;;;17.10;99.90;;;;;;5019711;28;20029;-72
2022/09/08 09:03:48;;;;;;;18.75;9.15;;;17.10;99.90;;;;;;5015876;28;20038;-74
2022/09/08 09:06:40;;;;;;;13.75;7.95;;;17.10;99.90;;;;;;5020020;28;20026;-72
2022/09/08 09:09:29;;;;;;;15.18;8.05;;;17.10;99.90;;;;;;5021723;28;20056;-76
2022/09/08 09:12:10;;;;;;;14.30;8.07;;;17.00;99.90;;;;;;5020930;28;20034;-74
2022/09/08 09:15:01;;;;;;;15.27;8.57;;;17.10;99.90;;;;;;5021881;28;20049;-74
2022/09/08 09:17:55;;;;;;;15.30;8.45;;;17.10;99.90;;;;;;5006393;28;20034;-73
2022/09/08 09:20:41;;;;;;;16.80;8.52;;;17.10;99.90;;;;;;5024273;28;20093;-73
2022/09/08 09:23:34;;;;;;;24.00;8.05;;;17.00;99.90;;;;;;5023558;28;20537;-73
2022/09/08 09:26:06;;;;;;;10.93;7.13;;;17.00;99.90;;;;;;5023478;28;20048;-72
2022/09/08 09:28:58;;;;;;;15.30;8.85;;;16.90;99.90;;;;;;5025225;28;20026;-72
2022/09/08 09:32:04;;;;;;;22.35;8.90;;;16.90;99.90;;;;;;5025173;28;20037;-71
2022/09/08 09:34:45;;;;;;;21.75;9.27;;;16.90;99.90;;;;;;4999270;28;20038;-73
2022/09/08 09:37:51;;;;;;;15.63;9.07;;;16.90;99.90;;;;;;5024813;28;20030;-72
2022/09/08 09:40:29;;;;;;;17.40;9.27;;;16.90;99.90;;;;;;5024641;28;20056;-72
2022/09/08 09:43:34;;;;;;;16.55;9.95;;;16.90;99.90;;;;;;5024659;28;20517;-72
2022/09/08 09:46:18;;;;;;;22.20;10.73;;;17.00;99.90;;;;;;4990485;28;20530;-71
2022/09/08 09:49:02;;;;;;;20.30;9.75;;;16.90;99.90;;;;;;5025400;28;20532;-72
2022/09/08 09:51:31;;;;;;;16.60;8.45;;;16.90;99.90;;;;;;5023742;28;20137;-72
2022/09/08 09:54:23;;;;;;;19.08;9.50;;;16.90;99.90;;;;;;5024510;28;20042;-72
2022/09/08 09:57:27;;;;;;;18.35;10.23;;;17.00;99.90;;;;;;5022941;28;20061;-71
2022/09/08 10:00:25;;;;;;;15.43;9.07;;;16.90;99.90;;;;;;5022529;28;20036;-71
2022/09/08 10:03:37;;;;;;;17.08;9.80;;;17.00;99.90;;;;;;5023436;28;20052;-72
2022/09/08 10:06:37;;;;;;;14.48;8.35;;;17.00;99.90;;;;;;5022685;28;20026;-72
2022/09/08 10:09:37;;;;;;;13.90;8.90;;;17.10;99.90;;;;;;5013598;28;20042;-72
2022/09/08 10:12:20;;;;;;;19.30;9.40;;;17.10;99.90;;;;;;5000258;28;20401;-71
2022/09/08 10:15:25;;;;;;;14.32;8.20;;;17.10;99.90;;;;;;5021261;28;20037;-72
2022/09/08 10:18:05;;;;;;;16.77;9.52;;;17.00;99.90;;;;;;5021327;28;20536;-71
2022/09/08 10:21:08;;;;;;;18.02;9.93;;;17.10;99.90;;;;;;5022194;28;20375;-72
2022/09/08 10:24:08;;;;;;;15.82;9.57;;;16.90;99.90;;;;;;5023509;28;20044;-70
2022/09/08 10:26:37;;;;;;;15.98;9.65;;;16.90;99.90;;;;;;5022046;28;20065;-69
2022/09/08 10:29:30;;;;;;;17.20;9.75;;;16.80;99.90;;;;;;5023310;28;20107;-71
2022/09/08 10:32:11;;;;;;;26.50;10.40;;;16.90;99.90;;;;;;5022881;28;20054;-71
2022/09/08 10:34:58;;;;;;;27.08;10.93;;;16.80;99.90;;;;;;5024290;28;20081;-71
2022/09/08 10:37:30;;;;;;;18.40;10.98;;;16.80;99.90;;;;;;5024019;28;20084;-70
2022/09/08 10:40:27;;;;;;;17.20;10.25;;;16.80;99.90;;;;;;5023870;28;20029;-70
2022/09/08 10:43:32;;;;;;;18.75;10.48;;;16.80;99.90;;;;;;5022990;28;20080;-71
2022/09/08 10:46:40;;;;;;;16.42;9.88;;;16.80;99.90;;;;;;5022423;28;20022;-73
2022/09/08 10:49:18;;;;;;;21.45;11.93;;;16.80;99.90;;;;;;5023225;28;20038;-72
2022/09/08 10:51:44;;;;;;;22.35;10.85;;;16.80;99.90;;;;;;5022903;28;20128;-73
2022/09/08 10:54:34;;;;;;;29.63;10.77;;;16.90;99.90;;;;;;5024075;28;20033;-72
2022/09/08 10:57:08;;;;;;;20.10;12.88;;;16.80;99.90;;;;;;5021807;28;20025;-73
2022/09/08 10:59:52;;;;;;;;;;;16.70;99.90;;;;;;5023082;28;20022;-73
2022/09/08 11:02:35;;;;;;;24.60;13.82;;;16.80;99.90;;;;;;5022382;28;19905;-74
2022/09/08 11:05:06;;;;;;;22.42;10.85;;;16.80;99.90;;;;;;5022929;28;20033;-73
2022/09/08 11:08:05;;;;;;;22.23;13.45;;;16.90;99.90;;;;;;5022044;28;20105;-73
2022/09/08 11:10:59;;;;;;;26.77;13.23;;;16.80;99.90;;;;;;5022807;28;20064;-73
2022/09/08 11:13:28;;;;;;;17.15;11.10;;;16.80;99.90;;;;;;5021017;28;20064;-74
2022/09/08 11:16:21;;;;;;;20.95;12.18;;;16.60;99.90;;;;;;5020190;28;21722;-73
2022/09/08 11:18:56;;;;;;;22.13;13.10;;;16.80;99.90;;;;;;5020706;28;20029;-73
2022/09/08 11:21:27;;;;;;;24.38;13.23;;;16.80;99.90;;;;;;5020645;28;20022;-74
2022/09/08 11:24:17;;;;;;;31.90;14.13;;;16.80;99.90;;;;;;5022236;28;20112;-75
2022/09/08 11:27:05;;;;;;;22.83;12.95;;;16.80;99.90;;;;;;5001191;28;20054;-75
2022/09/08 11:29:45;;;;;;;24.38;12.93;;;16.80;99.90;;;;;;5002529;28;20026;-75
2022/09/08 11:32:35;;;;;;;24.17;13.98;;;16.80;99.90;;;;;;5004568;28;20387;-75
2022/09/08 11:35:47;;;;;;;25.25;13.68;;;16.90;99.90;;;;;;5003189;28;20038;-75
2022/09/08 11:38:40;;;;;;;22.17;12.20;;;16.90;99.90;;;;;;5002460;28;20041;-75
2022/09/08 11:41:36;;;;;;;30.63;13.93;;;16.80;99.90;;;;;;5002605;28;20026;-74
2022/09/08 11:44:17;;;;;;;23.08;12.45;;;16.90;99.90;;;;;;5002518;28;20413;-74
2022/09/08 11:46:58;;;;;;;20.45;13.25;;;16.90;99.90;;;;;;5003273;28;20030;-74
2022/09/08 11:49:44;;;;;;;18.17;11.73;;;17.00;99.90;;;;;;5002962;28;20117;-74
2022/09/08 11:52:22;;;;;;;20.42;11.95;;;17.00;99.90;;;;;;5002434;28;20034;-75
2022/09/08 11:54:50;;;;;;;16.63;10.93;;;17.00;99.90;;;;;;5002760;28;20029;-75
2022/09/08 11:57:16;;;;;;;18.30;10.30;;;17.10;99.90;;;;;;5001854;28;20034;-74
2022/09/08 12:00:00;;;;;;;18.80;9.52;;;17.00;99.90;;;;;;5002519;28;20022;-75
2022/09/08 12:03:10;;;;;;;18.75;10.57;;;17.00;99.90;;;;;;5003118;28;20029;-73
2022/09/08 12:06:14;;;;;;;17.98;10.15;;;17.00;99.90;;;;;;5000929;28;20100;-74
2022/09/08 12:08:52;;;;;;;16.20;9.23;;;17.10;99.90;;;;;;4997629;28;20054;-73
2022/09/08 12:11:46;;;;;;;18.50;10.23;;;17.10;99.90;;;;;;4999460;28;20478;-73
2022/09/08 12:14:43;;;;;;;16.50;9.32;;;17.10;99.90;;;;;;4999998;28;20113;-73
2022/09/08 12:17:26;;;;;;;17.38;10.60;;;17.10;99.90;;;;;;4999436;28;20030;-73
2022/09/08 12:20:32;;;;;;;15.32;9.25;;;17.10;99.90;;;;;;4999714;28;20034;-74
2022/09/08 12:23:20;;;;;;;12.35;8.75;;;17.10;99.90;;;;;;4997222;28;20042;-75
2022/09/08 12:26:17;;;;;;;13.70;8.43;;;17.00;99.90;;;;;;4999848;28;20073;-72
2022/09/08 12:28:46;;;;;;;13.63;8.43;;;17.00;99.90;;;;;;5001653;28;20046;-74
2022/09/08 12:31:49;;;;;;;13.30;8.52;;;17.00;99.90;;;;;;5002588;28;20082;-75
2022/09/08 12:34:50;;;;;;;12.05;8.45;;;16.90;99.90;;;;;;5002123;28;20057;-76
2022/09/08 12:37:25;;;;;;;17.77;6.63;;;16.90;99.90;;;;;;5002759;28;20022;-74
2022/09/08 12:40:39;;;;;;;12.98;6.45;;;16.90;99.90;;;;;;4996415;28;20094;-75
2022/09/08 12:43:16;;;;;;;10.48;5.97;;;16.90;99.90;;;;;;4968786;28;20082;-74
2022/09/08 12:46:07;;;;;;;7.05;3.90;;;16.90;99.90;;;;;;5001823;28;20035;-74
2022/09/08 12:48:53;;;;;;;7.43;4.25;;;16.80;99.90;;;;;;5000246;28;20097;-75
2022/09/08 12:51:37;;;;;;;12.45;4.60;;;16.80;99.90;;;;;;4998513;28;20081;-74
2022/09/08 12:54:14;;;;;;;5.85;4.25;;;16.80;99.90;;;;;;5001434;28;20396;-75
2022/09/08 12:56:57;;;;;;;8.70;4.80;;;16.90;99.90;;;;;;5000283;28;20034;-74
2022/09/08 12:59:48;;;;;;;10.65;4.85;;;16.90;99.90;;;;;;5001076;28;20030;-75
2022/09/08 13:02:26;;;;;;;9.10;5.20;;;16.90;99.90;;;;;;5001625;28;20034;-75
2022/09/08 13:05:00;;;;;;;8.00;5.45;;;16.80;99.90;;;;;;5001493;28;20030;-74
2022/09/08 13:08:06;;;;;;;12.10;6.07;;;16.90;99.90;;;;;;5001540;28;20038;-75
2022/09/08 13:10:40;;;;;;;8.50;5.07;;;16.80;99.90;;;;;;5000189;28;20058;-75
2022/09/08 13:13:43;;;;;;;14.13;6.13;;;16.80;99.90;;;;;;5001545;28;20038;-74
2022/09/08 13:16:28;;;;;;;13.25;7.10;;;16.90;99.90;;;;;;5001535;28;20145;-75
2022/09/08 13:19:15;;;;;;;14.55;6.40;;;16.90;99.90;;;;;;5001427;28;20465;-74
2022/09/08 13:21:50;;;;;;;12.65;7.00;;;16.90;99.90;;;;;;4999210;28;20034;-75